Time;durP1;ratioP1;P1;durP2;ratioP2;P2;SDS_P1;SDS_P2;PMS_P1;PMS_P2;Temp;Humidity;BMP_temperature;BMP_pressure;BME280_temperature;BME280_humidity;BME280_pressure;Samples;Min_cycle;Max_cycle;Signal;HPM_P1;HPM_P2
2022/03/11 00:02:23;;;;;;;11.27;6.85;;;;;;;7.79;52.80;101769.28;5045838;28;20028;-69
2022/03/11 00:04:49;;;;;;;12.85;7.95;;;;;;;7.77;52.45;101770.94;5053401;28;20490;-69
2022/03/11 00:07:15;;;;;;;13.73;7.35;;;;;;;7.69;53.29;101770.63;5063424;28;20044;-70
2022/03/11 00:09:41;;;;;;;9.88;6.47;;;;;;;7.66;53.58;101769.59;5056872;28;20040;-69
2022/03/11 00:12:07;;;;;;;18.58;7.40;;;;;;;7.57;53.67;101757.00;5062784;28;20114;-70
2022/03/11 00:14:34;;;;;;;18.45;7.30;;;;;;;7.56;54.33;101771.81;5072432;28;20052;-70
2022/03/11 00:16:59;;;;;;;14.48;7.50;;;;;;;7.51;55.17;101768.06;5066359;28;20483;-69
2022/03/11 00:19:24;;;;;;;12.20;7.90;;;;;;;7.52;53.74;101761.13;5043741;28;20045;-68
2022/03/11 00:21:49;;;;;;;18.08;9.30;;;;;;;7.47;55.02;101765.28;5056835;28;20063;-69
2022/03/11 00:24:15;;;;;;;14.55;7.45;;;;;;;7.48;54.29;101756.59;5069047;28;20100;-68
2022/03/11 00:26:40;;;;;;;11.70;7.45;;;;;;;7.43;54.04;101751.13;5060675;28;20423;-68
2022/03/11 00:29:06;;;;;;;15.85;8.57;;;;;;;7.40;54.23;101756.25;5072269;28;20075;-69
2022/03/11 00:31:31;;;;;;;17.55;7.93;;;;;;;7.38;55.75;101750.94;5063312;28;20051;-70
2022/03/11 00:33:56;;;;;;;18.95;8.80;;;;;;;7.32;54.73;101747.16;5051565;28;20028;-69
2022/03/11 00:36:23;;;;;;;18.88;8.45;;;;;;;7.28;55.08;101743.50;5069050;28;20031;-70
2022/03/11 00:38:48;;;;;;;17.55;8.93;;;;;;;7.25;55.82;101746.88;5061396;28;20040;-70
2022/03/11 00:41:14;;;;;;;13.13;8.30;;;;;;;7.26;55.37;101742.56;5066027;28;20030;-70
2022/03/11 00:43:39;;;;;;;15.05;7.65;;;;;;;7.21;55.64;101741.44;5062877;28;20029;-70
2022/03/11 00:46:04;;;;;;;13.65;7.75;;;;;;;7.22;55.73;101738.88;5061641;28;20024;-70
2022/03/11 00:48:29;;;;;;;18.15;8.38;;;;;;;7.17;55.19;101734.28;5062329;28;20036;-70
2022/03/11 00:50:57;;;;;;;12.40;7.60;;;;;;;7.18;54.97;101736.97;5067309;28;20052;-70
2022/03/11 00:53:23;;;;;;;16.95;7.68;;;;;;;7.13;56.60;101741.09;5062273;28;20515;-71
2022/03/11 00:55:48;;;;;;;12.65;8.35;;;;;;;7.14;55.75;101736.78;5061328;28;20036;-71
2022/03/11 00:58:13;;;;;;;22.02;9.40;;;;;;;7.13;55.94;101740.22;5061081;28;20107;-69
2022/03/11 01:00:39;;;;;;;14.68;8.43;;;;;;;7.11;56.50;101728.75;5061039;28;20032;-70
2022/03/11 01:03:04;;;;;;;15.63;8.38;;;;;;;7.08;55.90;101716.44;5065501;28;20178;-70
2022/03/11 01:05:29;;;;;;;17.83;8.38;;;;;;;7.06;55.95;101716.34;5060940;28;20058;-70
2022/03/11 01:07:56;;;;;;;13.00;8.23;;;;;;;7.08;55.84;101719.97;5060452;28;20028;-69
2022/03/11 01:10:22;;;;;;;14.50;8.50;;;;;;;7.06;55.66;101715.47;5064735;28;20479;-70
2022/03/11 01:12:47;;;;;;;15.40;8.57;;;;;;;6.99;56.92;101714.31;5060856;28;20025;-70
2022/03/11 01:15:13;;;;;;;13.05;8.48;;;;;;;6.96;56.13;101703.72;5061297;28;20020;-69
2022/03/11 01:17:38;;;;;;;16.42;8.57;;;;;;;6.90;57.08;101711.25;5054588;28;20047;-69
2022/03/11 01:20:05;;;;;;;18.33;8.80;;;;;;;6.93;57.20;101703.53;5062816;28;20048;-69
2022/03/11 01:22:32;;;;;;;16.52;8.43;;;;;;;6.94;56.53;101700.13;5059607;28;20040;-68
2022/03/11 01:24:58;;;;;;;27.75;9.77;;;;;;;6.92;57.03;101696.56;5071400;28;20083;-68
2022/03/11 01:27:23;;;;;;;15.30;8.75;;;;;;;6.88;56.79;101686.78;5063828;28;20024;-69
2022/03/11 01:29:48;;;;;;;16.17;8.02;;;;;;;6.90;57.36;101692.94;5061733;28;20021;-69
2022/03/11 01:32:14;;;;;;;16.85;8.05;;;;;;;6.90;56.45;101687.72;5065203;28;20361;-69
2022/03/11 01:34:39;;;;;;;14.38;8.25;;;;;;;6.86;55.98;101685.78;5062761;28;20025;-68
2022/03/11 01:37:04;;;;;;;18.00;8.77;;;;;;;6.84;56.17;101682.22;5058096;28;20079;-69
2022/03/11 01:39:30;;;;;;;14.50;8.02;;;;;;;6.73;56.99;101674.78;5061880;28;20475;-69
2022/03/11 01:41:55;;;;;;;18.65;7.95;;;;;;;6.75;56.74;101675.75;5058500;28;20033;-70
2022/03/11 01:44:25;;;;;;;17.58;9.65;;;;;;;6.73;56.87;101668.66;5068128;28;20385;-70
2022/03/11 01:46:51;;;;;;;15.68;8.10;;;;;;;6.71;56.54;101668.56;5055715;28;20036;-70
2022/03/11 01:49:16;;;;;;;14.93;7.97;;;;;;;6.69;56.76;101665.00;5069186;28;20032;-69
2022/03/11 01:51:42;;;;;;;20.23;9.52;;;;;;;6.64;56.37;101660.38;5047750;28;20103;-69
2022/03/11 01:54:08;;;;;;;13.13;8.32;;;;;;;6.66;56.92;101661.34;5063148;28;20055;-69
2022/03/11 01:56:36;;;;;;;13.98;8.13;;;;;;;6.62;56.63;101655.09;5045781;28;20069;-69
2022/03/11 01:59:02;;;;;;;13.90;7.63;;;;;;;6.60;56.45;101661.97;5055624;28;20029;-69
2022/03/11 02:01:28;;;;;;;14.98;8.50;;;;;;;6.57;57.19;101651.38;5056945;28;20020;-69
2022/03/11 02:03:53;;;;;;;16.88;8.15;;;;;;;6.56;57.27;101649.56;5058321;28;20032;-69
2022/03/11 02:06:19;;;;;;;15.25;7.60;;;;;;;6.56;56.57;101641.72;5060772;28;20050;-69
2022/03/11 02:08:45;;;;;;;17.35;9.10;;;;;;;6.54;57.46;101643.38;5061747;28;20114;-69
2022/03/11 02:11:13;;;;;;;17.88;9.10;;;;;;;6.56;56.74;101639.09;5061323;28;20099;-69
2022/03/11 02:13:57;;;;;;;19.17;9.63;;;;;;;6.54;56.76;101633.81;5052584;28;20016;-70
2022/03/11 02:16:24;;;;;;;21.50;9.98;;;;;;;6.57;56.43;101635.69;5054519;28;20032;-69
2022/03/11 02:18:50;;;;;;;29.60;8.60;;;;;;;6.54;56.86;101632.94;5062511;28;20032;-69
2022/03/11 02:21:17;;;;;;;15.75;8.40;;;;;;;6.53;57.18;101633.75;5059386;28;20033;-69
2022/03/11 02:23:44;;;;;;;16.08;8.07;;;;;;;6.52;57.82;101626.72;5060696;28;20035;-69
2022/03/11 02:26:10;;;;;;;13.68;8.30;;;;;;;6.51;56.91;101628.44;5059412;28;20044;-70
2022/03/11 02:28:36;;;;;;;18.67;9.25;;;;;;;6.49;57.91;101629.19;5055595;28;20028;-70
2022/03/11 02:31:01;;;;;;;15.57;8.73;;;;;;;6.47;56.97;101623.00;5062921;28;20025;-70
2022/03/11 02:33:27;;;;;;;16.58;9.32;;;;;;;6.41;57.72;101614.03;5059412;28;20020;-70
2022/03/11 02:35:53;;;;;;;14.05;9.07;;;;;;;6.38;57.42;101611.28;5056535;28;20028;-70
2022/03/11 02:38:19;;;;;;;17.70;8.77;;;;;;;6.37;57.54;101606.00;5060842;28;20024;-70
2022/03/11 02:40:45;;;;;;;14.85;8.45;;;;;;;6.33;57.10;101610.19;5059115;28;20469;-70
2022/03/11 02:43:10;;;;;;;17.40;8.90;;;;;;;6.30;56.95;101602.22;5069745;28;20486;-71
2022/03/11 02:45:35;;;;;;;15.38;8.63;;;;;;;6.31;57.98;101601.38;5047973;28;20021;-70
2022/03/11 02:48:00;;;;;;;20.35;9.38;;;;;;;6.31;57.91;101605.69;5053904;28;20472;-71
2022/03/11 02:50:26;;;;;;;14.35;8.98;;;;;;;6.19;58.33;101604.31;5053756;28;20139;-71
2022/03/11 02:52:51;;;;;;;17.70;8.88;;;;;;;6.21;58.43;101600.06;5056021;28;20448;-70
2022/03/11 02:55:16;;;;;;;22.90;9.68;;;;;;;6.19;58.05;101601.72;5066873;28;20025;-71
2022/03/11 02:57:42;;;;;;;18.25;8.50;;;;;;;6.19;57.93;101598.22;5060948;28;20023;-70
2022/03/11 03:00:08;;;;;;;15.13;10.07;;;;;;;6.20;57.66;101602.59;5064432;28;20021;-72
2022/03/11 03:02:33;;;;;;;14.20;9.25;;;;;;;6.17;57.74;101602.47;5064501;28;20028;-68
2022/03/11 03:04:58;;;;;;;16.30;8.15;;;;;;;6.14;57.86;101600.59;5064261;28;20025;-69
2022/03/11 03:07:24;;;;;;;14.60;8.30;;;;;;;6.12;57.99;101593.50;5051941;28;20051;-69
2022/03/11 03:09:49;;;;;;;18.30;8.95;;;;;;;6.11;58.61;101597.84;5064535;28;20028;-69
2022/03/11 03:12:14;;;;;;;16.67;10.27;;;;;;;6.08;58.01;101593.38;5058158;28;20060;-69
2022/03/11 03:14:40;;;;;;;20.27;8.65;;;;;;;6.07;57.75;101591.56;5056832;28;20522;-69
2022/03/11 03:17:06;;;;;;;15.68;8.93;;;;;;;6.00;58.20;101584.28;5052794;28;20086;-69
2022/03/11 03:19:31;;;;;;;18.30;8.85;;;;;;;6.02;58.54;101582.66;5055764;28;20461;-69
2022/03/11 03:21:56;;;;;;;16.05;9.05;;;;;;;5.98;58.95;101583.31;5058028;28;20029;-69
2022/03/11 03:24:22;;;;;;;19.30;9.30;;;;;;;5.94;59.52;101578.75;5056783;28;20021;-69
2022/03/11 03:26:47;;;;;;;17.77;9.23;;;;;;;5.92;58.85;101580.38;5059446;28;20062;-68
2022/03/11 03:29:12;;;;;;;15.93;8.40;;;;;;;5.86;59.11;101575.75;5060140;28;20435;-68
2022/03/11 03:31:38;;;;;;;14.82;8.82;;;;;;;5.86;59.24;101573.16;5054302;28;20059;-68
2022/03/11 03:34:03;;;;;;;15.25;9.55;;;;;;;5.81;59.51;101576.38;5060310;28;20032;-69
2022/03/11 03:36:28;;;;;;;16.55;9.50;;;;;;;5.79;59.71;101580.59;5061926;28;20387;-68
2022/03/11 03:38:53;;;;;;;15.15;8.73;;;;;;;5.73;60.81;101584.72;5038903;28;20025;-69
2022/03/11 03:41:19;;;;;;;19.25;9.43;;;;;;;5.71;59.99;101578.53;5043161;28;20138;-69
2022/03/11 03:43:44;;;;;;;19.30;9.50;;;;;;;5.70;60.01;101578.47;5056422;28;20017;-69
2022/03/11 03:46:09;;;;;;;18.23;8.45;;;;;;;5.72;59.73;101575.09;5059486;28;20029;-70
2022/03/11 03:48:35;;;;;;;17.02;9.32;;;;;;;5.66;59.96;101564.34;5064602;28;20431;-69
2022/03/11 03:51:01;;;;;;;21.02;9.48;;;;;;;5.68;60.07;101561.81;5074894;28;20075;-69
2022/03/11 03:53:26;;;;;;;18.83;10.02;;;;;;;5.64;60.57;101565.97;5059680;28;20045;-69
2022/03/11 03:55:51;;;;;;;19.33;9.50;;;;;;;5.64;59.82;101562.50;5058243;28;20070;-69
2022/03/11 03:58:17;;;;;;;17.52;8.82;;;;;;;5.56;60.81;101565.63;5058605;28;20021;-69
2022/03/11 04:00:42;;;;;;;13.65;9.18;;;;;;;5.58;60.11;101563.09;5043924;28;20020;-69
2022/03/11 04:03:07;;;;;;;16.33;9.57;;;;;;;5.55;60.31;101558.63;5069460;28;20028;-70
2022/03/11 04:05:33;;;;;;;14.10;9.45;;;;;;;5.55;60.11;101552.50;5050627;28;20024;-70
2022/03/11 04:07:58;;;;;;;19.95;8.75;;;;;;;5.54;60.09;101550.72;5057365;28;20163;-70
2022/03/11 04:10:23;;;;;;;15.63;9.32;;;;;;;5.51;60.07;101551.47;5062910;28;20024;-69
2022/03/11 04:12:49;;;;;;;16.02;9.70;;;;;;;5.49;60.44;101555.69;5056427;28;20036;-70
2022/03/11 04:15:15;;;;;;;19.20;9.60;;;;;;;5.51;59.94;101550.56;5073186;28;20025;-69
2022/03/11 04:17:40;;;;;;;17.13;9.25;;;;;;;5.46;60.37;101546.84;5056234;28;20044;-70
2022/03/11 04:20:06;;;;;;;17.02;9.38;;;;;;;5.41;60.40;101546.59;5047296;28;20024;-70
2022/03/11 04:22:32;;;;;;;17.85;9.98;;;;;;;5.44;60.05;101538.03;5038468;28;20124;-70
2022/03/11 04:24:57;;;;;;;17.20;9.40;;;;;;;5.45;60.34;101534.59;5062236;28;20112;-70
2022/03/11 04:27:22;;;;;;;16.13;9.13;;;;;;;5.45;60.20;101539.81;5058801;28;20021;-70
2022/03/11 04:29:48;;;;;;;15.32;8.63;;;;;;;5.41;60.49;101528.31;5063614;28;20028;-70
2022/03/11 04:32:13;;;;;;;18.85;9.73;;;;;;;5.42;59.49;101529.25;5068524;28;20066;-70
2022/03/11 04:34:39;;;;;;;16.80;9.45;;;;;;;5.40;59.75;101530.06;5069881;28;20031;-70
2022/03/11 04:37:04;;;;;;;17.55;9.93;;;;;;;5.36;59.70;101522.91;5056131;28;20032;-70
2022/03/11 04:39:30;;;;;;;15.02;8.82;;;;;;;5.34;60.20;101527.13;5061320;28;20039;-70
2022/03/11 04:41:56;;;;;;;16.60;9.57;;;;;;;5.33;60.21;101530.59;5062464;28;20032;-70
2022/03/11 04:44:22;;;;;;;15.55;9.20;;;;;;;5.33;60.24;101525.38;5059618;28;20476;-69
2022/03/11 04:46:47;;;;;;;15.50;9.07;;;;;;;5.31;60.22;101527.00;5070508;28;20032;-69
2022/03/11 04:49:13;;;;;;;14.07;8.27;;;;;;;5.29;59.72;101523.44;5048640;28;20040;-70
2022/03/11 04:51:38;;;;;;;15.48;8.85;;;;;;;5.28;60.45;101524.25;5057169;28;20467;-70
2022/03/11 04:54:08;;;;;;;14.60;7.90;;;;;;;5.25;60.51;101518.88;5067117;28;20420;-70
2022/03/11 04:56:34;;;;;;;16.58;8.50;;;;;;;5.23;60.45;101518.78;5066621;28;20083;-70
2022/03/11 04:58:59;;;;;;;15.20;8.95;;;;;;;5.21;60.13;101525.66;5058858;28;20427;-69
2022/03/11 05:01:25;;;;;;;14.07;8.60;;;;;;;5.19;60.85;101521.16;5054680;28;20081;-70
2022/03/11 05:03:51;;;;;;;21.60;10.25;;;;;;;5.14;60.85;101517.44;5065918;28;20036;-69
2022/03/11 05:06:17;;;;;;;15.55;9.13;;;;;;;5.13;60.98;101516.56;5050737;28;20059;-69
2022/03/11 05:08:42;;;;;;;16.27;8.13;;;;;;;5.11;61.45;101517.28;5042455;28;20025;-70
2022/03/11 05:11:08;;;;;;;14.02;8.90;;;;;;;5.09;61.22;101513.69;5055808;28;20032;-70
2022/03/11 05:13:33;;;;;;;17.73;10.30;;;;;;;5.07;61.32;101511.00;5063156;28;20380;-70
2022/03/11 05:15:59;;;;;;;15.52;8.82;;;;;;;5.06;61.03;101515.34;5057885;28;20107;-69
2022/03/11 05:18:25;;;;;;;16.88;9.65;;;;;;;5.01;61.34;101511.59;5036831;28;20024;-70
2022/03/11 05:20:50;;;;;;;23.23;9.65;;;;;;;5.00;62.10;101511.53;5055453;28;20044;-70
2022/03/11 05:23:16;;;;;;;15.40;9.40;;;;;;;4.99;61.93;101512.34;5065546;28;20016;-70
2022/03/11 05:25:41;;;;;;;16.80;8.23;;;;;;;4.96;61.80;101505.25;5061352;28;20377;-70
2022/03/11 05:28:08;;;;;;;15.85;8.73;;;;;;;4.92;62.09;101511.16;5059972;28;20025;-70
2022/03/11 05:30:33;;;;;;;16.38;9.32;;;;;;;4.90;62.42;101507.59;5061068;28;20063;-70
2022/03/11 05:32:58;;;;;;;14.77;8.82;;;;;;;4.85;62.32;101504.72;5062871;28;20017;-68
2022/03/11 05:35:24;;;;;;;17.02;9.80;;;;;;;4.84;62.69;101502.97;5068666;28;20031;-70
2022/03/11 05:37:49;;;;;;;20.42;9.80;;;;;;;4.83;62.80;101513.28;5058393;28;20023;-70
2022/03/11 05:40:14;;;;;;;17.90;8.98;;;;;;;4.80;62.62;101511.44;5056686;28;20028;-70
2022/03/11 05:42:40;;;;;;;16.95;8.90;;;;;;;4.79;62.63;101511.34;5038564;28;20033;-70
2022/03/11 05:45:07;;;;;;;15.80;9.55;;;;;;;4.73;63.11;101515.44;5047116;28;20082;-69
2022/03/11 05:47:33;;;;;;;19.55;9.27;;;;;;;4.75;63.36;101509.38;5056899;28;20377;-69
2022/03/11 05:49:58;;;;;;;15.07;9.43;;;;;;;4.73;63.22;101512.84;5059397;28;20036;-69
2022/03/11 05:52:24;;;;;;;19.05;9.63;;;;;;;4.70;62.67;101504.84;5067921;28;20074;-69
2022/03/11 05:54:49;;;;;;;14.50;9.13;;;;;;;4.71;62.66;101508.38;5069598;28;20380;-70
2022/03/11 05:57:15;;;;;;;16.08;8.85;;;;;;;4.71;62.82;101509.25;5065498;28;20020;-69
2022/03/11 05:59:40;;;;;;;16.90;9.07;;;;;;;4.76;63.19;101511.19;5065574;28;20392;-69
2022/03/11 06:02:06;;;;;;;16.48;9.10;;;;;;;4.72;63.21;101508.44;5063925;28;20029;-69
2022/03/11 06:04:32;;;;;;;17.67;8.57;;;;;;;4.70;63.75;101504.84;5068553;28;20491;-69
2022/03/11 06:06:57;;;;;;;16.92;9.55;;;;;;;4.65;64.08;101513.25;5062076;28;20033;-69
2022/03/11 06:09:22;;;;;;;20.80;8.85;;;;;;;4.66;63.43;101508.09;5067570;28;20074;-74
2022/03/11 06:11:47;;;;;;;15.00;8.48;;;;;;;4.70;63.44;101503.97;5060406;28;20040;-71
2022/03/11 06:14:13;;;;;;;18.48;8.73;;;;;;;4.69;63.23;101503.06;5064927;28;20031;-68
2022/03/11 06:16:38;;;;;;;19.88;9.55;;;;;;;4.65;63.73;101495.91;5060482;28;20396;-68
2022/03/11 06:19:03;;;;;;;16.25;9.15;;;;;;;4.66;63.45;101492.47;5058825;28;20468;-69
2022/03/11 06:21:29;;;;;;;19.23;8.82;;;;;;;4.66;63.43;101484.66;5066214;28;20031;-70
2022/03/11 06:23:54;;;;;;;19.35;8.95;;;;;;;4.70;63.63;101481.38;5074515;28;20090;-70
2022/03/11 06:26:20;;;;;;;23.73;9.15;;;;;;;4.71;63.16;101488.38;5053138;28;20124;-68
2022/03/11 06:28:45;;;;;;;15.98;9.43;;;;;;;4.70;63.27;101485.72;5057565;28;20098;-70
2022/03/11 06:31:11;;;;;;;18.10;7.85;;;;;;;4.67;63.14;101473.41;5051166;28;20029;-70
2022/03/11 06:33:38;;;;;;;18.05;7.80;;;;;;;4.73;63.10;101489.38;5065462;28;20090;-69
2022/03/11 06:36:05;;;;;;;15.70;8.75;;;;;;;4.72;63.45;101484.97;5033230;28;20097;-70
2022/03/11 06:38:30;;;;;;;16.60;8.82;;;;;;;4.71;63.33;101483.19;5065229;28;20333;-71
2022/03/11 06:40:56;;;;;;;24.83;9.38;;;;;;;4.73;62.98;101484.16;5064508;28;20037;-70
2022/03/11 06:43:22;;;;;;;15.80;8.45;;;;;;;4.76;63.29;101482.50;5069689;28;20035;-70
2022/03/11 06:45:47;;;;;;;21.85;9.40;;;;;;;4.76;63.03;101475.59;5071173;28;20464;-69
2022/03/11 06:48:12;;;;;;;16.85;8.50;;;;;;;4.80;62.97;101484.44;5057812;28;20029;-70
2022/03/11 06:50:38;;;;;;;19.02;8.68;;;;;;;4.81;62.64;101486.25;5061529;28;20063;-70
2022/03/11 06:53:03;;;;;;;16.63;8.23;;;;;;;4.84;62.38;101481.19;5070221;28;20548;-68
2022/03/11 06:55:29;;;;;;;18.52;8.43;;;;;;;4.86;62.88;101484.78;5052617;28;20037;-69
2022/03/11 06:57:54;;;;;;;18.27;8.30;;;;;;;4.90;62.78;101478.91;5066350;28;20017;-74
2022/03/11 07:00:20;;;;;;;18.65;8.15;;;;;;;4.93;62.61;101485.97;5070214;28;20028;-74
2022/03/11 07:02:45;;;;;;;13.80;7.32;;;;;;;4.97;61.92;101480.97;5065820;28;20481;-73
2022/03/11 07:05:11;;;;;;;13.88;7.80;;;;;;;4.96;62.44;101466.13;5055068;28;20033;-74
2022/03/11 07:07:37;;;;;;;14.27;8.55;;;;;;;5.03;62.24;101473.47;5046598;28;20404;-72
2022/03/11 07:10:04;;;;;;;16.30;7.97;;;;;;;5.07;61.54;101469.28;5057614;28;20029;-74
2022/03/11 07:12:31;;;;;;;17.73;8.23;;;;;;;5.12;61.98;101466.91;5061454;28;20021;-74
2022/03/11 07:14:59;;;;;;;22.92;8.00;;;;;;;5.19;61.33;101463.78;5042346;28;20029;-72
2022/03/11 07:17:24;;;;;;;17.98;7.82;;;;;;;5.23;62.06;101457.88;5057992;28;20028;-75
2022/03/11 07:19:50;;;;;;;13.77;7.57;;;;;;;5.27;61.36;101465.03;5054459;28;20041;-74
2022/03/11 07:22:15;;;;;;;14.57;7.93;;;;;;;5.32;61.11;101470.50;5058573;28;20032;-74
2022/03/11 07:24:41;;;;;;;15.07;7.70;;;;;;;5.38;60.28;101466.44;5057181;28;20036;-72
2022/03/11 07:27:06;;;;;;;19.52;8.88;;;;;;;5.45;60.16;101472.84;5053583;28;20113;-74
2022/03/11 07:29:32;;;;;;;12.20;7.78;;;;;;;5.50;60.58;101467.84;5059756;28;20020;-74
2022/03/11 07:31:57;;;;;;;714.08;89.63;;;;;;;5.53;61.07;101473.22;5062171;28;20076;-72
2022/03/11 07:34:23;;;;;;;15.43;8.05;;;;;;;5.57;60.55;101467.31;5045005;28;20491;-72
2022/03/11 07:36:49;;;;;;;13.40;8.25;;;;;;;5.66;59.92;101461.66;5057056;28;20028;-76
2022/03/11 07:39:14;;;;;;;18.60;8.80;;;;;;;5.71;60.07;101454.88;5064981;28;20028;-73
2022/03/11 07:41:40;;;;;;;13.57;7.75;;;;;;;5.73;60.07;101454.16;5063914;28;20024;-73
2022/03/11 07:44:05;;;;;;;15.32;8.25;;;;;;;5.78;60.34;101456.97;5039303;28;20112;-73
2022/03/11 07:46:31;;;;;;;13.15;7.53;;;;;;;5.84;59.99;101461.59;5062413;28;20029;-73
2022/03/11 07:48:57;;;;;;;12.80;7.72;;;;;;;5.88;60.32;101453.94;5061291;28;20017;-72
2022/03/11 07:51:24;;;;;;;13.38;7.82;;;;;;;5.94;59.95;101448.13;5051372;28;20051;-71
2022/03/11 07:53:50;;;;;;;17.23;8.60;;;;;;;6.00;60.08;101452.78;5060460;28;20400;-73
2022/03/11 07:56:15;;;;;;;15.23;7.93;;;;;;;6.06;60.30;101451.34;5062668;28;20021;-73
2022/03/11 07:58:44;;;;;;;15.05;7.82;;;;;;;6.12;59.39;101447.19;5048944;28;20025;-73
2022/03/11 08:01:10;;;;;;;17.27;8.40;;;;;;;6.19;59.65;101451.88;5061351;28;20036;-73
2022/03/11 08:03:37;;;;;;;18.83;8.30;;;;;;;6.26;59.07;101451.31;5056701;28;20024;-72
2022/03/11 08:06:04;;;;;;;18.05;8.55;;;;;;;6.36;59.01;101445.66;5060984;28;20040;-72
2022/03/11 08:08:29;;;;;;;17.10;8.45;;;;;;;6.45;58.99;101444.28;5040543;28;20025;-73
2022/03/11 08:10:54;;;;;;;19.55;8.07;;;;;;;6.55;58.57;101449.97;5066036;28;20055;-72
2022/03/11 08:13:20;;;;;;;20.77;8.18;;;;;;;6.65;57.52;101430.31;5058327;28;20103;-72
2022/03/11 08:15:46;;;;;;;16.98;9.35;;;;;;;6.75;57.44;101427.28;5057832;28;20029;-74
2022/03/11 08:18:11;;;;;;;20.33;7.82;;;;;;;6.84;57.77;101431.97;5055549;28;20021;-73
2022/03/11 08:20:36;;;;;;;13.63;7.97;;;;;;;6.94;56.98;101417.53;5056447;28;20025;-73
2022/03/11 08:23:02;;;;;;;23.63;9.02;;;;;;;7.03;56.35;101412.69;5055889;28;20021;-73
2022/03/11 08:25:27;;;;;;;15.43;8.25;;;;;;;7.09;55.84;101405.09;5051228;28;20031;-74
2022/03/11 08:27:54;;;;;;;16.95;8.57;;;;;;;7.15;56.44;101411.38;5062365;28;20056;-73
2022/03/11 08:30:21;;;;;;;12.38;7.72;;;;;;;7.27;56.26;101417.13;5051722;28;20029;-73
2022/03/11 08:32:48;;;;;;;13.52;7.50;;;;;;;7.34;56.35;101413.91;5055504;28;20055;-73
2022/03/11 08:35:13;;;;;;;17.58;8.60;;;;;;;7.44;55.90;101409.91;5054789;28;20028;-72
2022/03/11 08:37:39;;;;;;;20.65;8.30;;;;;;;7.53;55.48;101414.63;5068183;28;20024;-74
2022/03/11 08:40:06;;;;;;;18.20;9.13;;;;;;;7.61;56.18;101418.44;5059937;28;20113;-73
2022/03/11 08:42:32;;;;;;;19.92;8.77;;;;;;;7.68;56.19;101409.94;5058714;28;20025;-73
2022/03/11 08:45:01;;;;;;;20.70;8.43;;;;;;;7.80;55.24;101408.63;5057527;28;20028;-74
2022/03/11 08:47:27;;;;;;;19.25;8.70;;;;;;;7.90;55.27;101406.38;5063756;28;20053;-73
2022/03/11 08:49:53;;;;;;;13.90;8.20;;;;;;;7.96;54.78;101400.47;5051946;28;20362;-73
2022/03/11 08:52:19;;;;;;;17.10;8.38;;;;;;;8.08;53.89;101400.94;5066965;28;20021;-73
2022/03/11 08:54:45;;;;;;;14.10;8.70;;;;;;;8.13;54.63;101392.34;5038464;28;20183;-73
2022/03/11 08:57:10;;;;;;;15.02;8.45;;;;;;;8.25;54.41;101390.16;5063378;28;20388;-74
2022/03/11 08:59:36;;;;;;;14.35;8.05;;;;;;;8.33;54.91;101386.06;5041010;28;20024;-73
2022/03/11 09:02:02;;;;;;;12.73;8.13;;;;;;;8.49;53.91;101398.00;5055991;28;20036;-74
2022/03/11 09:04:27;;;;;;;18.10;8.45;;;;;;;8.63;53.34;101382.72;5062371;28;20101;-72
2022/03/11 09:06:53;;;;;;;15.38;8.88;;;;;;;8.82;52.81;101388.56;5055401;28;20025;-73
2022/03/11 09:09:18;;;;;;;16.67;7.80;;;;;;;9.02;52.38;101386.56;5056390;28;20021;-72
2022/03/11 09:11:44;;;;;;;19.27;9.32;;;;;;;9.21;51.96;101377.53;5060377;28;20025;-72
2022/03/11 09:14:09;;;;;;;17.48;8.85;;;;;;;9.40;50.85;101382.53;5056469;28;20031;-74
2022/03/11 09:16:34;;;;;;;10.70;7.65;;;;;;;9.54;50.85;101374.16;5054231;28;20025;-74
2022/03/11 09:19:01;;;;;;;17.33;9.15;;;;;;;9.63;51.21;101369.19;5057441;28;20029;-74
2022/03/11 09:21:26;;;;;;;18.35;9.00;;;;;;;9.83;50.61;101374.09;5054507;28;20024;-72
2022/03/11 09:23:51;;;;;;;22.40;8.88;;;;;;;9.92;49.71;101367.34;5056192;28;20373;-73
2022/03/11 09:26:17;;;;;;;15.10;8.38;;;;;;;10.09;49.91;101365.19;5060908;28;20056;-71
2022/03/11 09:28:42;;;;;;;12.90;8.20;;;;;;;10.31;49.17;101371.03;5054771;28;20036;-72
2022/03/11 09:31:10;;;;;;;16.60;8.70;;;;;;;10.44;48.54;101357.38;5059072;28;20090;-73
2022/03/11 09:33:39;;;;;;;16.38;8.85;;;;;;;10.69;48.06;101352.72;5067718;28;20122;-72
2022/03/11 09:36:06;;;;;;;21.25;9.57;;;;;;;10.82;48.74;101348.63;5052473;28;20123;-73
2022/03/11 09:38:32;;;;;;;14.02;9.35;;;;;;;11.07;47.41;101350.09;5046745;28;20079;-73
2022/03/11 09:41:00;;;;;;;17.88;8.82;;;;;;;11.32;46.50;101349.75;5062022;28;20469;-73
2022/03/11 09:43:26;;;;;;;17.23;8.95;;;;;;;11.48;45.75;101346.56;5068140;28;20064;-73
2022/03/11 09:45:51;;;;;;;25.25;9.02;;;;;;;11.54;45.49;101341.41;5054253;28;20067;-73
2022/03/11 09:48:17;;;;;;;17.13;9.73;;;;;;;11.80;45.49;101339.31;5054465;28;20032;-73
2022/03/11 09:50:43;;;;;;;14.48;9.75;;;;;;;11.96;45.66;101337.00;5061316;28;20449;-72
2022/03/11 09:53:10;;;;;;;27.58;11.82;;;;;;;12.25;45.06;101336.63;5060381;28;20076;-72
2022/03/11 09:55:36;;;;;;;18.55;9.45;;;;;;;12.44;44.50;101335.22;5071979;28;20091;-73
2022/03/11 09:58:01;;;;;;;19.52;9.98;;;;;;;12.65;43.75;101329.38;5059438;28;20013;-72
2022/03/11 10:00:27;;;;;;;17.13;9.13;;;;;;;12.67;43.75;101330.31;5074292;28;20028;-72
2022/03/11 10:02:53;;;;;;;26.00;9.30;;;;;;;12.65;44.72;101321.47;5060058;28;20033;-74
2022/03/11 10:05:18;;;;;;;16.70;9.52;;;;;;;12.67;44.30;101313.56;5064838;28;20108;-73
2022/03/11 10:07:44;;;;;;;16.88;8.15;;;;;;;12.87;44.02;101316.50;5055994;28;20050;-73
2022/03/11 10:10:18;;;;;;;22.23;9.32;;;;;;;12.89;43.79;101309.53;5035666;28;20033;-73
2022/03/11 10:12:44;;;;;;;;;;;;;;;12.97;44.16;101303.47;5036239;28;20469;-73
2022/03/11 10:15:11;;;;;;;16.13;8.43;;;;;;;13.10;43.75;101311.56;5053523;28;19909;-73
2022/03/11 10:17:39;;;;;;;16.33;8.27;;;;;;;13.18;43.28;101306.38;5036291;28;20472;-73
2022/03/11 10:20:09;;;;;;;16.70;9.63;;;;;;;13.35;44.11;101314.50;5055696;28;20418;-72
2022/03/11 10:22:35;;;;;;;17.48;9.10;;;;;;;13.35;43.63;101314.50;5044375;28;20400;-73
2022/03/11 10:25:08;;;;;;;15.68;8.82;;;;;;;13.35;44.30;101312.78;5053175;28;20396;-73
2022/03/11 10:27:52;;;;;;;12.70;8.43;;;;;;;13.73;43.37;101312.38;5045142;28;20123;-72
2022/03/11 10:30:17;;;;;;;24.23;9.05;;;;;;;13.60;43.13;101299.88;5037170;28;20099;-71
2022/03/11 10:32:56;;;;;;;15.25;8.50;;;;;;;13.68;43.21;101303.50;5053441;28;20156;-71
2022/03/11 10:35:49;;;;;;;17.10;8.88;;;;;;;13.70;43.21;101291.19;5053538;28;20025;-72
2022/03/11 10:38:20;;;;;;;16.17;8.68;;;;;;;13.80;42.73;101293.03;5054838;28;20033;-71
2022/03/11 10:40:51;;;;;;;13.48;8.88;;;;;;;14.00;43.51;101281.78;5055464;28;20419;-71
2022/03/11 10:43:28;;;;;;;14.65;9.02;;;;;;;14.17;43.28;101276.63;5071127;28;20024;-71
2022/03/11 10:46:04;;;;;;;17.33;9.13;;;;;;;14.45;42.48;101266.28;5060734;28;20033;-72
2022/03/11 10:48:43;;;;;;;14.57;9.05;;;;;;;14.57;41.95;101276.97;5054857;28;20506;-71
2022/03/11 10:51:12;;;;;;;18.35;9.02;;;;;;;14.81;41.55;101270.97;5067224;28;20104;-71
2022/03/11 10:53:39;;;;;;;15.63;9.70;;;;;;;14.93;41.11;101269.25;5070442;28;20040;-71
2022/03/11 10:56:06;;;;;;;16.83;8.98;;;;;;;14.97;41.11;101255.16;5069484;28;20017;-72
2022/03/11 10:58:31;;;;;;;17.00;8.45;;;;;;;15.19;42.20;101269.38;5069520;28;20419;-72
2022/03/11 11:00:56;;;;;;;19.05;9.20;;;;;;;15.48;39.99;101258.88;5063203;28;20029;-71
2022/03/11 11:03:22;;;;;;;20.65;9.43;;;;;;;15.72;40.24;101262.50;5060984;28;20052;-72
2022/03/11 11:05:48;;;;;;;13.48;8.63;;;;;;;16.07;38.99;101264.31;5073674;28;20032;-71
2022/03/11 11:08:13;;;;;;;18.98;8.85;;;;;;;16.16;38.36;101272.28;5061134;28;20025;-71
2022/03/11 11:10:39;;;;;;;14.48;8.90;;;;;;;16.13;38.50;101258.16;5063103;28;20436;-74
2022/03/11 11:13:06;;;;;;;36.30;10.80;;;;;;;16.21;38.94;101260.78;5073241;28;20029;-74
2022/03/11 11:15:32;;;;;;;27.50;9.93;;;;;;;16.38;38.65;101253.69;5062219;28;20051;-73
2022/03/11 11:18:05;;;;;;;37.03;9.77;;;;;;;16.74;37.20;101249.22;5040726;28;20377;-71
2022/03/11 11:20:33;;;;;;;22.55;9.50;;;;;;;16.86;38.01;101243.88;5053519;28;20029;-74